sensor_id;sensor_type;location;lat;lon;timestamp;pressure;altitude;pressure_sealevel;temperature;humidity
34482;BME280;20720;48.886;9.388;2023-04-28T00:01:51;98227.97;;;15.84;79.23
34482;BME280;20720;48.886;9.388;2023-04-28T00:04:17;98227.91;;;16.08;78.67
34482;BME280;20720;48.886;9.388;2023-04-28T00:06:42;98229.78;;;15.95;78.20
34482;BME280;20720;48.886;9.388;2023-04-28T00:09:07;98225.19;;;15.91;79.03
34482;BME280;20720;48.886;9.388;2023-04-28T00:11:36;98223.09;;;16.05;78.40
34482;BME280;20720;48.886;9.388;2023-04-28T00:14:02;98208.19;;;16.03;78.06
34482;BME280;20720;48.886;9.388;2023-04-28T00:16:28;98199.03;;;16.23;77.85
34482;BME280;20720;48.886;9.388;2023-04-28T00:18:53;98200.06;;;16.22;77.61
34482;BME280;20720;48.886;9.388;2023-04-28T00:21:18;98193.38;;;16.19;78.64
34482;BME280;20720;48.886;9.388;2023-04-28T00:23:43;98200.09;;;16.38;77.20
34482;BME280;20720;48.886;9.388;2023-04-28T00:26:09;98197.66;;;16.65;76.60
34482;BME280;20720;48.886;9.388;2023-04-28T00:28:34;98193.59;;;16.46;76.43
34482;BME280;20720;48.886;9.388;2023-04-28T00:31:00;98200.38;;;16.70;75.95
34482;BME280;20720;48.886;9.388;2023-04-28T00:33:25;98192.94;;;16.67;75.28
34482;BME280;20720;48.886;9.388;2023-04-28T00:35:57;98198.78;;;16.85;75.34
34482;BME280;20720;48.886;9.388;2023-04-28T00:38:23;98205.19;;;16.56;75.60
34482;BME280;20720;48.886;9.388;2023-04-28T00:40:49;98200.81;;;16.78;75.92
34482;BME280;20720;48.886;9.388;2023-04-28T00:43:14;98186.31;;;16.53;76.68
34482;BME280;20720;48.886;9.388;2023-04-28T00:45:40;98187.34;;;17.18;73.75
34482;BME280;20720;48.886;9.388;2023-04-28T00:48:06;98196.50;;;17.27;74.05
34482;BME280;20720;48.886;9.388;2023-04-28T00:50:32;98190.59;;;16.54;78.98
34482;BME280;20720;48.886;9.388;2023-04-28T00:52:59;98189.00;;;16.41;78.77
34482;BME280;20720;48.886;9.388;2023-04-28T00:55:25;98181.75;;;16.48;78.94
34482;BME280;20720;48.886;9.388;2023-04-28T00:57:50;98178.22;;;16.76;77.61
34482;BME280;20720;48.886;9.388;2023-04-28T01:00:16;98174.81;;;16.64;77.49
34482;BME280;20720;48.886;9.388;2023-04-28T01:02:41;98177.28;;;17.04;76.25
34482;BME280;20720;48.886;9.388;2023-04-28T01:05:07;98176.44;;;16.81;78.36
34482;BME280;20720;48.886;9.388;2023-04-28T01:07:33;98172.00;;;16.87;78.80
34482;BME280;20720;48.886;9.388;2023-04-28T01:09:59;98167.63;;;16.98;77.75
34482;BME280;20720;48.886;9.388;2023-04-28T01:12:24;98161.94;;;16.89;76.82
34482;BME280;20720;48.886;9.388;2023-04-28T01:14:49;98159.34;;;16.94;76.78
34482;BME280;20720;48.886;9.388;2023-04-28T01:17:15;98155.28;;;17.25;75.72
34482;BME280;20720;48.886;9.388;2023-04-28T01:19:41;98162.22;;;17.26;77.56
34482;BME280;20720;48.886;9.388;2023-04-28T01:22:06;98165.31;;;16.35;80.41
34482;BME280;20720;48.886;9.388;2023-04-28T01:24:33;98157.13;;;16.86;79.95
34482;BME280;20720;48.886;9.388;2023-04-28T01:26:58;98155.47;;;17.02;77.33
34482;BME280;20720;48.886;9.388;2023-04-28T01:29:23;98160.91;;;16.73;81.31
34482;BME280;20720;48.886;9.388;2023-04-28T01:31:49;98157.72;;;17.10;79.19
34482;BME280;20720;48.886;9.388;2023-04-28T01:34:14;98152.94;;;16.73;78.20
34482;BME280;20720;48.886;9.388;2023-04-28T01:36:40;98159.22;;;16.84;79.01
34482;BME280;20720;48.886;9.388;2023-04-28T01:39:05;98157.63;;;16.50;80.29
34482;BME280;20720;48.886;9.388;2023-04-28T01:41:30;98146.88;;;15.83;89.36
34482;BME280;20720;48.886;9.388;2023-04-28T01:43:58;98144.47;;;15.82;87.17
34482;BME280;20720;48.886;9.388;2023-04-28T01:46:23;98139.41;;;16.25;87.02
34482;BME280;20720;48.886;9.388;2023-04-28T01:48:49;98137.09;;;16.45;87.60
34482;BME280;20720;48.886;9.388;2023-04-28T01:51:14;98147.06;;;15.93;88.62
34482;BME280;20720;48.886;9.388;2023-04-28T01:53:39;98147.88;;;15.66;95.31
34482;BME280;20720;48.886;9.388;2023-04-28T01:56:05;98136.56;;;15.70;95.75
34482;BME280;20720;48.886;9.388;2023-04-28T01:58:30;98143.78;;;16.03;91.18
34482;BME280;20720;48.886;9.388;2023-04-28T02:00:55;98136.94;;;15.62;94.96
34482;BME280;20720;48.886;9.388;2023-04-28T02:03:21;98136.91;;;15.11;99.68
34482;BME280;20720;48.886;9.388;2023-04-28T02:05:46;98140.44;;;16.69;89.37
34482;BME280;20720;48.886;9.388;2023-04-28T02:08:11;98129.66;;;16.59;94.45
34482;BME280;20720;48.886;9.388;2023-04-28T02:10:37;98128.72;;;15.13;100.00
34482;BME280;20720;48.886;9.388;2023-04-28T02:13:02;98135.38;;;16.06;100.00
34482;BME280;20720;48.886;9.388;2023-04-28T02:15:27;98118.00;;;15.98;100.00
34482;BME280;20720;48.886;9.388;2023-04-28T02:17:52;98117.63;;;16.07;99.31
34482;BME280;20720;48.886;9.388;2023-04-28T02:20:18;98116.63;;;15.96;100.00
34482;BME280;20720;48.886;9.388;2023-04-28T02:22:43;98113.50;;;15.43;100.00
34482;BME280;20720;48.886;9.388;2023-04-28T02:25:09;98113.47;;;16.44;98.87
34482;BME280;20720;48.886;9.388;2023-04-28T02:27:35;98117.13;;;16.71;92.69
34482;BME280;20720;48.886;9.388;2023-04-28T02:30:04;98115.50;;;16.70;92.82
34482;BME280;20720;48.886;9.388;2023-04-28T02:32:29;98107.59;;;16.75;93.97
34482;BME280;20720;48.886;9.388;2023-04-28T02:34:55;98109.63;;;17.06;91.73
34482;BME280;20720;48.886;9.388;2023-04-28T02:37:21;98110.50;;;16.73;93.30
34482;BME280;20720;48.886;9.388;2023-04-28T02:39:46;98113.00;;;16.80;92.43
34482;BME280;20720;48.886;9.388;2023-04-28T02:42:11;98107.47;;;16.65;92.45
34482;BME280;20720;48.886;9.388;2023-04-28T02:44:37;98104.31;;;16.35;96.13
34482;BME280;20720;48.886;9.388;2023-04-28T02:47:02;98112.44;;;15.83;97.82
34482;BME280;20720;48.886;9.388;2023-04-28T02:49:27;98110.31;;;16.47;92.33
34482;BME280;20720;48.886;9.388;2023-04-28T02:51:53;98103.00;;;15.59;99.17
34482;BME280;20720;48.886;9.388;2023-04-28T02:54:18;98106.97;;;16.35;95.68
34482;BME280;20720;48.886;9.388;2023-04-28T02:56:54;98108.25;;;16.16;92.47
34482;BME280;20720;48.886;9.388;2023-04-28T02:59:21;98097.50;;;16.55;95.94
34482;BME280;20720;48.886;9.388;2023-04-28T03:01:47;98102.47;;;16.68;90.79
34482;BME280;20720;48.886;9.388;2023-04-28T03:04:13;98110.25;;;16.42;94.31
34482;BME280;20720;48.886;9.388;2023-04-28T03:06:38;98118.22;;;16.58;93.44
34482;BME280;20720;48.886;9.388;2023-04-28T03:09:03;98112.41;;;16.45;92.01
34482;BME280;20720;48.886;9.388;2023-04-28T03:11:29;98116.31;;;15.64;96.76
34482;BME280;20720;48.886;9.388;2023-04-28T03:13:54;98120.78;;;16.37;92.62
34482;BME280;20720;48.886;9.388;2023-04-28T03:16:19;98130.09;;;16.89;93.05
34482;BME280;20720;48.886;9.388;2023-04-28T03:18:45;98120.31;;;16.56;98.52
34482;BME280;20720;48.886;9.388;2023-04-28T03:21:10;98110.59;;;16.78;100.00
34482;BME280;20720;48.886;9.388;2023-04-28T03:23:35;98119.44;;;16.84;100.00
34482;BME280;20720;48.886;9.388;2023-04-28T03:26:01;98114.91;;;15.73;100.00
34482;BME280;20720;48.886;9.388;2023-04-28T03:28:26;98109.00;;;15.99;100.00
34482;BME280;20720;48.886;9.388;2023-04-28T03:30:51;98105.06;;;15.85;100.00
34482;BME280;20720;48.886;9.388;2023-04-28T03:33:16;98097.19;;;15.23;100.00
34482;BME280;20720;48.886;9.388;2023-04-28T03:35:41;98098.25;;;15.89;100.00
34482;BME280;20720;48.886;9.388;2023-04-28T03:38:07;98089.56;;;15.38;100.00
34482;BME280;20720;48.886;9.388;2023-04-28T03:40:33;98085.09;;;15.94;100.00
34482;BME280;20720;48.886;9.388;2023-04-28T03:42:58;98074.66;;;16.05;100.00
34482;BME280;20720;48.886;9.388;2023-04-28T03:45:23;98073.69;;;16.11;100.00
34482;BME280;20720;48.886;9.388;2023-04-28T03:47:49;98069.03;;;15.05;100.00
34482;BME280;20720;48.886;9.388;2023-04-28T03:50:14;98060.47;;;15.26;100.00
34482;BME280;20720;48.886;9.388;2023-04-28T03:52:39;98064.47;;;15.52;100.00
34482;BME280;20720;48.886;9.388;2023-04-28T03:55:05;98060.44;;;15.49;100.00
34482;BME280;20720;48.886;9.388;2023-04-28T03:57:30;98070.09;;;15.55;100.00
34482;BME280;20720;48.886;9.388;2023-04-28T03:59:56;98072.41;;;15.40;100.00
34482;BME280;20720;48.886;9.388;2023-04-28T04:02:21;98065.72;;;15.49;100.00
34482;BME280;20720;48.886;9.388;2023-04-28T04:04:46;98062.03;;;15.50;100.00
34482;BME280;20720;48.886;9.388;2023-04-28T04:07:12;98074.88;;;15.86;100.00
34482;BME280;20720;48.886;9.388;2023-04-28T04:09:37;98065.66;;;15.89;100.00
34482;BME280;20720;48.886;9.388;2023-04-28T04:12:03;98067.09;;;15.80;100.00
34482;BME280;20720;48.886;9.388;2023-04-28T04:14:28;98061.31;;;15.99;100.00
34482;BME280;20720;48.886;9.388;2023-04-28T04:16:53;98061.28;;;15.83;100.00
34482;BME280;20720;48.886;9.388;2023-04-28T04:19:19;98058.38;;;15.68;100.00
34482;BME280;20720;48.886;9.388;2023-04-28T04:21:45;98060.19;;;15.39;100.00
34482;BME280;20720;48.886;9.388;2023-04-28T04:24:10;98064.94;;;15.65;100.00
34482;BME280;20720;48.886;9.388;2023-04-28T04:26:35;98063.06;;;15.77;100.00
34482;BME280;20720;48.886;9.388;2023-04-28T04:29:01;98064.94;;;15.65;100.00
34482;BME280;20720;48.886;9.388;2023-04-28T04:31:26;98062.69;;;15.85;100.00
34482;BME280;20720;48.886;9.388;2023-04-28T04:33:51;98061.53;;;15.81;100.00
34482;BME280;20720;48.886;9.388;2023-04-28T04:36:17;98064.38;;;15.63;100.00
34482;BME280;20720;48.886;9.388;2023-04-28T04:38:42;98064.31;;;15.75;100.00
34482;BME280;20720;48.886;9.388;2023-04-28T04:41:08;98068.81;;;15.46;100.00
34482;BME280;20720;48.886;9.388;2023-04-28T04:43:33;98062.59;;;15.97;100.00
34482;BME280;20720;48.886;9.388;2023-04-28T04:45:58;98061.63;;;16.03;100.00
34482;BME280;20720;48.886;9.388;2023-04-28T04:48:24;98067.56;;;16.43;100.00
34482;BME280;20720;48.886;9.388;2023-04-28T04:50:49;98066.47;;;16.23;100.00
34482;BME280;20720;48.886;9.388;2023-04-28T04:53:14;98066.44;;;16.39;100.00
34482;BME280;20720;48.886;9.388;2023-04-28T04:55:40;98065.06;;;16.48;100.00
34482;BME280;20720;48.886;9.388;2023-04-28T04:58:05;98063.69;;;15.84;100.00
34482;BME280;20720;48.886;9.388;2023-04-28T05:00:30;98068.03;;;15.90;100.00
34482;BME280;20720;48.886;9.388;2023-04-28T05:02:55;98065.84;;;16.16;100.00
34482;BME280;20720;48.886;9.388;2023-04-28T05:05:21;98070.16;;;16.55;100.00
34482;BME280;20720;48.886;9.388;2023-04-28T05:07:46;98058.75;;;16.38;100.00
34482;BME280;20720;48.886;9.388;2023-04-28T05:10:11;98054.91;;;16.29;100.00
34482;BME280;20720;48.886;9.388;2023-04-28T05:12:37;98055.19;;;15.82;100.00
34482;BME280;20720;48.886;9.388;2023-04-28T05:15:04;98032.56;;;15.91;100.00
34482;BME280;20720;48.886;9.388;2023-04-28T05:17:31;98040.91;;;16.33;100.00
34482;BME280;20720;48.886;9.388;2023-04-28T05:19:56;98043.81;;;16.15;100.00
34482;BME280;20720;48.886;9.388;2023-04-28T05:22:21;98043.72;;;16.27;100.00
34482;BME280;20720;48.886;9.388;2023-04-28T05:24:46;98047.34;;;16.21;100.00
34482;BME280;20720;48.886;9.388;2023-04-28T05:27:12;98045.59;;;15.93;100.00
34482;BME280;20720;48.886;9.388;2023-04-28T05:29:37;98057.31;;;16.14;100.00
34482;BME280;20720;48.886;9.388;2023-04-28T05:32:03;98055.84;;;16.72;100.00
34482;BME280;20720;48.886;9.388;2023-04-28T05:34:28;98053.59;;;15.81;100.00
34482;BME280;20720;48.886;9.388;2023-04-28T05:36:53;98041.31;;;15.47;100.00
34482;BME280;20720;48.886;9.388;2023-04-28T05:39:18;98055.88;;;15.61;100.00
34482;BME280;20720;48.886;9.388;2023-04-28T05:41:43;98050.72;;;15.99;100.00
34482;BME280;20720;48.886;9.388;2023-04-28T05:44:09;98049.13;;;15.98;100.00
34482;BME280;20720;48.886;9.388;2023-04-28T05:46:35;98062.22;;;15.60;100.00
34482;BME280;20720;48.886;9.388;2023-04-28T05:49:00;98060.34;;;16.06;100.00
34482;BME280;20720;48.886;9.388;2023-04-28T05:51:26;98061.31;;;16.33;100.00
34482;BME280;20720;48.886;9.388;2023-04-28T05:53:51;98054.22;;;15.72;100.00
34482;BME280;20720;48.886;9.388;2023-04-28T05:56:16;98057.00;;;16.10;100.00
34482;BME280;20720;48.886;9.388;2023-04-28T05:58:42;98049.25;;;15.92;100.00
34482;BME280;20720;48.886;9.388;2023-04-28T06:01:11;98047.09;;;16.06;100.00
34482;BME280;20720;48.886;9.388;2023-04-28T06:03:36;98041.88;;;15.77;100.00
34482;BME280;20720;48.886;9.388;2023-04-28T06:06:02;98038.16;;;15.78;100.00
34482;BME280;20720;48.886;9.388;2023-04-28T06:08:27;98041.41;;;15.41;100.00
34482;BME280;20720;48.886;9.388;2023-04-28T06:10:52;98036.81;;;15.76;100.00
34482;BME280;20720;48.886;9.388;2023-04-28T06:13:18;98040.09;;;15.99;100.00
34482;BME280;20720;48.886;9.388;2023-04-28T06:15:43;98029.94;;;15.63;100.00
34482;BME280;20720;48.886;9.388;2023-04-28T06:18:08;98015.69;;;15.64;100.00
34482;BME280;20720;48.886;9.388;2023-04-28T06:20:34;98022.16;;;15.29;100.00
34482;BME280;20720;48.886;9.388;2023-04-28T06:22:59;98004.09;;;14.86;100.00
34482;BME280;20720;48.886;9.388;2023-04-28T06:25:25;98003.94;;;15.04;100.00
34482;BME280;20720;48.886;9.388;2023-04-28T06:27:50;97999.97;;;15.46;100.00
34482;BME280;20720;48.886;9.388;2023-04-28T06:30:21;97993.44;;;15.37;100.00
34482;BME280;20720;48.886;9.388;2023-04-28T06:32:47;97996.28;;;15.19;100.00
34482;BME280;20720;48.886;9.388;2023-04-28T06:35:13;98005.28;;;15.74;100.00
34482;BME280;20720;48.886;9.388;2023-04-28T06:37:38;98005.56;;;16.28;100.00
34482;BME280;20720;48.886;9.388;2023-04-28T06:40:03;97999.00;;;16.14;100.00
34482;BME280;20720;48.886;9.388;2023-04-28T06:42:29;97996.66;;;16.72;100.00
34482;BME280;20720;48.886;9.388;2023-04-28T06:44:54;98000.09;;;16.51;100.00
34482;BME280;20720;48.886;9.388;2023-04-28T06:47:20;97989.00;;;16.54;100.00
34482;BME280;20720;48.886;9.388;2023-04-28T06:49:45;97990.47;;;15.78;100.00
34482;BME280;20720;48.886;9.388;2023-04-28T06:52:14;97983.97;;;16.19;100.00
34482;BME280;20720;48.886;9.388;2023-04-28T06:54:39;97963.88;;;15.40;100.00
34482;BME280;20720;48.886;9.388;2023-04-28T06:57:04;97962.97;;;15.63;100.00
34482;BME280;20720;48.886;9.388;2023-04-28T06:59:30;97967.44;;;15.79;100.00
34482;BME280;20720;48.886;9.388;2023-04-28T07:01:55;97972.25;;;15.98;100.00
34482;BME280;20720;48.886;9.388;2023-04-28T07:04:21;97959.81;;;15.82;100.00
34482;BME280;20720;48.886;9.388;2023-04-28T07:06:46;97953.47;;;15.50;100.00
34482;BME280;20720;48.886;9.388;2023-04-28T07:09:11;97948.66;;;14.91;100.00
34482;BME280;20720;48.886;9.388;2023-04-28T07:11:37;97939.25;;;14.44;100.00
34482;BME280;20720;48.886;9.388;2023-04-28T07:14:02;97935.81;;;14.43;100.00
34482;BME280;20720;48.886;9.388;2023-04-28T07:16:27;97951.31;;;15.80;100.00
34482;BME280;20720;48.886;9.388;2023-04-28T07:18:52;97934.13;;;15.83;100.00
34482;BME280;20720;48.886;9.388;2023-04-28T07:21:18;97929.72;;;15.88;100.00
34482;BME280;20720;48.886;9.388;2023-04-28T07:23:44;97948.84;;;16.29;100.00
34482;BME280;20720;48.886;9.388;2023-04-28T07:26:10;97942.94;;;16.05;100.00
34482;BME280;20720;48.886;9.388;2023-04-28T07:28:35;97950.66;;;16.07;100.00
34482;BME280;20720;48.886;9.388;2023-04-28T07:31:00;97943.41;;;16.19;100.00
34482;BME280;20720;48.886;9.388;2023-04-28T07:33:26;97949.63;;;16.46;100.00
34482;BME280;20720;48.886;9.388;2023-04-28T07:35:52;97947.88;;;16.35;100.00
34482;BME280;20720;48.886;9.388;2023-04-28T07:38:17;97941.72;;;16.13;100.00
34482;BME280;20720;48.886;9.388;2023-04-28T07:40:46;97935.19;;;16.20;100.00
34482;BME280;20720;48.886;9.388;2023-04-28T07:43:11;97938.63;;;16.54;100.00
34482;BME280;20720;48.886;9.388;2023-04-28T07:45:38;97947.28;;;15.94;100.00
34482;BME280;20720;48.886;9.388;2023-04-28T07:48:04;97941.94;;;16.28;100.00
34482;BME280;20720;48.886;9.388;2023-04-28T07:50:29;97947.84;;;15.96;100.00
34482;BME280;20720;48.886;9.388;2023-04-28T07:52:54;97943.09;;;16.15;100.00
34482;BME280;20720;48.886;9.388;2023-04-28T07:55:19;97944.16;;;15.64;100.00
34482;BME280;20720;48.886;9.388;2023-04-28T07:57:45;97946.97;;;16.46;100.00
34482;BME280;20720;48.886;9.388;2023-04-28T08:00:10;97953.03;;;16.63;100.00
34482;BME280;20720;48.886;9.388;2023-04-28T08:02:36;97962.13;;;16.67;100.00
34482;BME280;20720;48.886;9.388;2023-04-28T08:05:01;97956.31;;;16.70;100.00
34482;BME280;20720;48.886;9.388;2023-04-28T08:07:27;97963.03;;;16.77;100.00
34482;BME280;20720;48.886;9.388;2023-04-28T08:09:53;97961.97;;;15.52;100.00
34482;BME280;20720;48.886;9.388;2023-04-28T08:12:19;97957.50;;;16.41;100.00
34482;BME280;20720;48.886;9.388;2023-04-28T08:14:44;97950.38;;;15.25;100.00
34482;BME280;20720;48.886;9.388;2023-04-28T08:17:10;97962.19;;;15.06;100.00
34482;BME280;20720;48.886;9.388;2023-04-28T08:19:36;97980.97;;;16.49;100.00
34482;BME280;20720;48.886;9.388;2023-04-28T08:22:01;97992.41;;;16.92;100.00
34482;BME280;20720;48.886;9.388;2023-04-28T08:24:30;97957.72;;;16.77;100.00
34482;BME280;20720;48.886;9.388;2023-04-28T08:26:59;97980.78;;;16.77;100.00
34482;BME280;20720;48.886;9.388;2023-04-28T08:29:27;97985.13;;;16.83;100.00
34482;BME280;20720;48.886;9.388;2023-04-28T08:31:52;97985.69;;;17.07;100.00
34482;BME280;20720;48.886;9.388;2023-04-28T08:34:18;97993.56;;;17.23;100.00
34482;BME280;20720;48.886;9.388;2023-04-28T08:36:43;97995.56;;;16.89;100.00
34482;BME280;20720;48.886;9.388;2023-04-28T08:39:08;97994.03;;;16.93;100.00
34482;BME280;20720;48.886;9.388;2023-04-28T08:41:37;97987.78;;;16.83;100.00
34482;BME280;20720;48.886;9.388;2023-04-28T08:44:07;97974.97;;;17.02;100.00
34482;BME280;20720;48.886;9.388;2023-04-28T08:46:33;97975.06;;;16.85;100.00
34482;BME280;20720;48.886;9.388;2023-04-28T08:49:00;97984.31;;;16.61;100.00
34482;BME280;20720;48.886;9.388;2023-04-28T08:51:33;97981.59;;;16.99;100.00
34482;BME280;20720;48.886;9.388;2023-04-28T08:54:01;97997.31;;;17.27;100.00
34482;BME280;20720;48.886;9.388;2023-04-28T08:56:31;97992.81;;;17.54;100.00
34482;BME280;20720;48.886;9.388;2023-04-28T08:59:03;97990.16;;;17.28;100.00
34482;BME280;20720;48.886;9.388;2023-04-28T09:01:32;97996.03;;;17.08;100.00
34482;BME280;20720;48.886;9.388;2023-04-28T09:04:00;97986.13;;;16.39;100.00
34482;BME280;20720;48.886;9.388;2023-04-28T09:06:28;97994.44;;;17.55;100.00
34482;BME280;20720;48.886;9.388;2023-04-28T09:08:55;98009.13;;;17.63;100.00
34482;BME280;20720;48.886;9.388;2023-04-28T09:11:21;98011.53;;;18.28;100.00
34482;BME280;20720;48.886;9.388;2023-04-28T09:13:46;98007.59;;;18.35;100.00
34482;BME280;20720;48.886;9.388;2023-04-28T09:16:11;98009.53;;;17.28;100.00
34482;BME280;20720;48.886;9.388;2023-04-28T09:18:37;98008.88;;;17.64;100.00
34482;BME280;20720;48.886;9.388;2023-04-28T09:21:03;98003.09;;;17.24;100.00
34482;BME280;20720;48.886;9.388;2023-04-28T09:23:29;97993.03;;;17.48;100.00
34482;BME280;20720;48.886;9.388;2023-04-28T09:26:02;98006.31;;;17.74;100.00
34482;BME280;20720;48.886;9.388;2023-04-28T09:28:32;98013.16;;;18.34;100.00
34482;BME280;20720;48.886;9.388;2023-04-28T09:30:58;97998.91;;;17.50;100.00
34482;BME280;20720;48.886;9.388;2023-04-28T09:33:24;98001.91;;;16.67;100.00
34482;BME280;20720;48.886;9.388;2023-04-28T09:35:50;97987.00;;;17.09;100.00
34482;BME280;20720;48.886;9.388;2023-04-28T09:38:16;97995.31;;;16.91;100.00
34482;BME280;20720;48.886;9.388;2023-04-28T09:44:17;97981.84;;;16.76;100.00
34482;BME280;20720;48.886;9.388;2023-04-28T09:46:44;97989.84;;;17.24;100.00
34482;BME280;20720;48.886;9.388;2023-04-28T09:49:13;97976.44;;;17.62;100.00
34482;BME280;20720;48.886;9.388;2023-04-28T09:51:39;97960.50;;;16.87;100.00
34482;BME280;20720;48.886;9.388;2023-04-28T09:54:05;97962.38;;;17.40;100.00
34482;BME280;20720;48.886;9.388;2023-04-28T09:56:32;97969.88;;;18.07;100.00
34482;BME280;20720;48.886;9.388;2023-04-28T09:59:00;97966.97;;;16.97;100.00
34482;BME280;20720;48.886;9.388;2023-04-28T10:01:35;97968.63;;;17.51;100.00
34482;BME280;20720;48.886;9.388;2023-04-28T10:04:03;97971.75;;;17.74;100.00
34482;BME280;20720;48.886;9.388;2023-04-28T10:06:28;97980.16;;;18.71;100.00
34482;BME280;20720;48.886;9.388;2023-04-28T10:08:54;97967.13;;;17.33;100.00
34482;BME280;20720;48.886;9.388;2023-04-28T10:11:22;97968.22;;;17.37;100.00
34482;BME280;20720;48.886;9.388;2023-04-28T10:13:49;97961.84;;;17.12;100.00
34482;BME280;20720;48.886;9.388;2023-04-28T10:16:15;97967.31;;;18.17;100.00
34482;BME280;20720;48.886;9.388;2023-04-28T10:18:40;97979.38;;;17.66;100.00
34482;BME280;20720;48.886;9.388;2023-04-28T10:21:06;97967.81;;;18.19;100.00
34482;BME280;20720;48.886;9.388;2023-04-28T10:23:45;97971.00;;;19.24;100.00
34482;BME280;20720;48.886;9.388;2023-04-28T10:26:13;97980.16;;;19.68;100.00
34482;BME280;20720;48.886;9.388;2023-04-28T10:28:45;97984.19;;;18.89;100.00
34482;BME280;20720;48.886;9.388;2023-04-28T10:31:13;97950.97;;;17.66;100.00
34482;BME280;20720;48.886;9.388;2023-04-28T10:33:39;97946.69;;;17.97;100.00
34482;BME280;20720;48.886;9.388;2023-04-28T10:36:05;97959.84;;;18.19;100.00
34482;BME280;20720;48.886;9.388;2023-04-28T10:38:31;97956.19;;;17.56;100.00
34482;BME280;20720;48.886;9.388;2023-04-28T10:40:57;97968.72;;;18.29;100.00
34482;BME280;20720;48.886;9.388;2023-04-28T10:43:35;97970.25;;;19.44;100.00
34482;BME280;20720;48.886;9.388;2023-04-28T10:46:03;97973.19;;;19.42;100.00
34482;BME280;20720;48.886;9.388;2023-04-28T10:56:19;97979.66;;;18.85;100.00
34482;BME280;20720;48.886;9.388;2023-04-28T10:58:50;97985.50;;;19.79;100.00
34482;BME280;20720;48.886;9.388;2023-04-28T11:01:23;97981.25;;;19.78;100.00
34482;BME280;20720;48.886;9.388;2023-04-28T11:03:53;97982.78;;;19.33;100.00
34482;BME280;20720;48.886;9.388;2023-04-28T11:09:01;97991.88;;;19.57;100.00
34482;BME280;20720;48.886;9.388;2023-04-28T11:11:30;97996.97;;;20.14;100.00
34482;BME280;20720;48.886;9.388;2023-04-28T11:19:20;97988.97;;;19.64;100.00
34482;BME280;20720;48.886;9.388;2023-04-28T11:21:47;97996.91;;;19.44;100.00
34482;BME280;20720;48.886;9.388;2023-04-28T11:24:13;97990.81;;;19.99;100.00
34482;BME280;20720;48.886;9.388;2023-04-28T11:26:39;97991.34;;;20.16;100.00
34482;BME280;20720;48.886;9.388;2023-04-28T11:29:04;97995.63;;;19.92;100.00
34482;BME280;20720;48.886;9.388;2023-04-28T11:31:30;97993.78;;;20.17;100.00
34482;BME280;20720;48.886;9.388;2023-04-28T11:33:58;97995.91;;;20.25;100.00
34482;BME280;20720;48.886;9.388;2023-04-28T11:36:35;97996.72;;;20.21;100.00
34482;BME280;20720;48.886;9.388;2023-04-28T11:39:05;97989.78;;;19.85;100.00
34482;BME280;20720;48.886;9.388;2023-04-28T11:41:32;97985.47;;;20.39;100.00
34482;BME280;20720;48.886;9.388;2023-04-28T11:43:58;97980.56;;;20.76;100.00
34482;BME280;20720;48.886;9.388;2023-04-28T11:46:24;97985.97;;;20.66;100.00
34482;BME280;20720;48.886;9.388;2023-04-28T11:49:01;97974.19;;;20.72;100.00
34482;BME280;20720;48.886;9.388;2023-04-28T11:51:37;97979.66;;;21.11;100.00
34482;BME280;20720;48.886;9.388;2023-04-28T11:54:04;97986.56;;;20.33;100.00
34482;BME280;20720;48.886;9.388;2023-04-28T11:56:36;97973.19;;;19.37;100.00
34482;BME280;20720;48.886;9.388;2023-04-28T11:59:03;97958.00;;;20.08;100.00
34482;BME280;20720;48.886;9.388;2023-04-28T12:01:30;97959.53;;;19.19;100.00
34482;BME280;20720;48.886;9.388;2023-04-28T12:03:55;97961.22;;;19.60;100.00
34482;BME280;20720;48.886;9.388;2023-04-28T12:06:21;97949.34;;;18.96;100.00
34482;BME280;20720;48.886;9.388;2023-04-28T12:08:47;97942.59;;;18.68;100.00
34482;BME280;20720;48.886;9.388;2023-04-28T12:11:13;97947.13;;;19.85;100.00
34482;BME280;20720;48.886;9.388;2023-04-28T12:13:39;97955.28;;;20.53;100.00
34482;BME280;20720;48.886;9.388;2023-04-28T12:16:06;97962.84;;;21.05;100.00
34482;BME280;20720;48.886;9.388;2023-04-28T12:18:32;97960.41;;;20.40;100.00
34482;BME280;20720;48.886;9.388;2023-04-28T12:20:57;97971.91;;;21.09;100.00
34482;BME280;20720;48.886;9.388;2023-04-28T12:23:31;97978.53;;;20.48;100.00
34482;BME280;20720;48.886;9.388;2023-04-28T12:25:56;97977.19;;;21.24;100.00
34482;BME280;20720;48.886;9.388;2023-04-28T12:28:22;97980.53;;;20.86;100.00
34482;BME280;20720;48.886;9.388;2023-04-28T12:30:48;97966.00;;;20.43;100.00
34482;BME280;20720;48.886;9.388;2023-04-28T12:33:24;97974.72;;;20.69;100.00
34482;BME280;20720;48.886;9.388;2023-04-28T12:35:49;97968.56;;;20.69;100.00
34482;BME280;20720;48.886;9.388;2023-04-28T12:38:15;97964.97;;;19.69;100.00
34482;BME280;20720;48.886;9.388;2023-04-28T12:40:41;97962.53;;;19.37;100.00
34482;BME280;20720;48.886;9.388;2023-04-28T12:43:06;97983.75;;;19.07;100.00
34482;BME280;20720;48.886;9.388;2023-04-28T12:45:31;97991.00;;;18.65;100.00
34482;BME280;20720;48.886;9.388;2023-04-28T12:47:58;97985.72;;;18.28;100.00
34482;BME280;20720;48.886;9.388;2023-04-28T12:50:23;98008.47;;;18.46;100.00
34482;BME280;20720;48.886;9.388;2023-04-28T12:52:49;97998.59;;;17.46;100.00
34482;BME280;20720;48.886;9.388;2023-04-28T12:55:15;97997.09;;;17.55;100.00
34482;BME280;20720;48.886;9.388;2023-04-28T12:57:40;98006.31;;;17.48;100.00
34482;BME280;20720;48.886;9.388;2023-04-28T13:00:06;98002.19;;;17.62;100.00
34482;BME280;20720;48.886;9.388;2023-04-28T13:02:32;97989.13;;;17.07;100.00
34482;BME280;20720;48.886;9.388;2023-04-28T13:04:58;97996.97;;;16.97;100.00
34482;BME280;20720;48.886;9.388;2023-04-28T13:07:23;97984.53;;;18.51;100.00